Lake Dallas, Texas
Current Conditions -  °F | °C
As of 9:53 AM on Friday 24 Oct 2014 (Local Time) from KDTO Reporting Station
Broken Clouds Broken Clouds  
Wind Chill: 67°   Ceiling: 6500
Heat Index: 67°   Visibility: 10mi
Dew Point: 56°   Wind: 13mph
Humidity: 68%   Direction: 160°SSE
Pressure: 30.16"   Gusts: NA
Location:  33.12°N, 97.03°W
Report Text: KDTO 241453Z 16011KT 10SM BKN065 19/13 A3016 RMK AO2 SLP209 T01940133 53013
Loading
Personal Weather Stations






























Interactive Weather Map
Tropical Storm Tracking
New forecast layout! Learn more

10-Day Weather Forecast

Advertisements
Track Severe Weather on mobile